AWE1748 KORD-KPHL
Flight info
| Callsign | AWE1748 |
|---|---|
| Flight time | 1h 24m |
| Altitude | 37000 |
| Route | MOBLE ADIME GERBS Q186 SPYDY EWC JST |
| Aircraft | A320/M-SDE3FGHIRWY/LB1 |
Departure
| Time | 2026-05-06 18:20 |
|---|---|
| Airport | Chicago O'Hare International Airport (KORD) |
Arrival
| Time | 2026-05-06 19:44 |
|---|---|
| Airport | Philadelphia International Airport (KPHL) |
| Time | Latitude | Longitude | Altitude | Speed | Heading |
|---|---|---|---|---|---|
| 2026-05-06 18:08 | 41.97360 | -87.90650 | 669 ft | 0 kts | 90° |
| 2026-05-06 18:10 | 41.97360 | -87.90651 | 669 ft | 1 kts | 90° |
| 2026-05-06 18:10 | 41.97361 | -87.90683 | 665 ft | 4 kts | 104° |
| 2026-05-06 18:11 | 41.97372 | -87.90714 | 669 ft | 4 kts | 143° |
| 2026-05-06 18:11 | 41.97385 | -87.90722 | 667 ft | 2 kts | 179° |
| 2026-05-06 18:11 | 41.97392 | -87.90722 | 667 ft | 0 kts | 180° |
| 2026-05-06 18:13 | 41.97380 | -87.90722 | 666 ft | 3 kts | 180° |
| 2026-05-06 18:13 | 41.97349 | -87.90723 | 668 ft | 6 kts | 181° |
| 2026-05-06 18:13 | 41.97300 | -87.90737 | 669 ft | 8 kts | 213° |
| 2026-05-06 18:14 | 41.97290 | -87.90817 | 669 ft | 11 kts | 305° |
| 2026-05-06 18:14 | 41.97352 | -87.90899 | 669 ft | 14 kts | 317° |
| 2026-05-06 18:14 | 41.97431 | -87.90998 | 669 ft | 17 kts | 318° |
| 2026-05-06 18:14 | 41.97530 | -87.91098 | 669 ft | 17 kts | 336° |
| 2026-05-06 18:15 | 41.97587 | -87.91010 | 669 ft | 14 kts | 66° |
| 2026-05-06 18:15 | 41.97665 | -87.90932 | 669 ft | 16 kts | 34° |
| 2026-05-06 18:15 | 41.97758 | -87.90844 | 669 ft | 18 kts | 13° |
| 2026-05-06 18:15 | 41.97888 | -87.90817 | 669 ft | 20 kts | 9° |
| 2026-05-06 18:16 | 41.98024 | -87.90784 | 668 ft | 16 kts | 9° |
| 2026-05-06 18:16 | 41.98127 | -87.90780 | 666 ft | 14 kts | 352° |
| 2026-05-06 18:16 | 41.98241 | -87.90793 | 669 ft | 19 kts | 6° |
| 2026-05-06 18:16 | 41.98289 | -87.90642 | 668 ft | 21 kts | 90° |
| 2026-05-06 18:17 | 41.98287 | -87.90455 | 668 ft | 20 kts | 89° |
| 2026-05-06 18:17 | 41.98288 | -87.90268 | 669 ft | 21 kts | 89° |
| 2026-05-06 18:17 | 41.98289 | -87.90055 | 669 ft | 24 kts | 89° |
| 2026-05-06 18:17 | 41.98289 | -87.89847 | 670 ft | 17 kts | 91° |
| 2026-05-06 18:18 | 41.98287 | -87.89679 | 670 ft | 19 kts | 90° |
| 2026-05-06 18:18 | 41.98289 | -87.89491 | 670 ft | 22 kts | 90° |
| 2026-05-06 18:18 | 41.98305 | -87.89364 | 669 ft | 5 kts | 32° |
| 2026-05-06 18:18 | 41.98343 | -87.89390 | 669 ft | 8 kts | 321° |
| 2026-05-06 18:19 | 41.98387 | -87.89468 | 669 ft | 13 kts | 276° |
| 2026-05-06 18:19 | 41.98388 | -87.89656 | 672 ft | 35 kts | 269° |
| 2026-05-06 18:19 | 41.98387 | -87.90007 | 671 ft | 87 kts | 270° |
| 2026-05-06 18:19 | 41.98390 | -87.91191 | 721 ft | 157 kts | 270° |
| 2026-05-06 18:20 | 41.98416 | -87.92689 | 1637 ft | 166 kts | 276° |
| 2026-05-06 18:20 | 41.98827 | -87.94177 | 2336 ft | 183 kts | 307° |
| 2026-05-06 18:20 | 41.99957 | -87.95061 | 3086 ft | 198 kts | 347° |
| 2026-05-06 18:20 | 42.01345 | -87.94826 | 3988 ft | 211 kts | 22° |
| 2026-05-06 18:21 | 42.02563 | -87.93665 | 4751 ft | 219 kts | 35° |
| 2026-05-06 18:21 | 42.03758 | -87.92342 | 5239 ft | 232 kts | 36° |
| 2026-05-06 18:21 | 42.04922 | -87.90714 | 5736 ft | 261 kts | 57° |
| 2026-05-06 18:21 | 42.05386 | -87.88261 | 6406 ft | 283 kts | 94° |
| 2026-05-06 18:22 | 42.05088 | -87.85600 | 7323 ft | 291 kts | 101° |
| 2026-05-06 18:22 | 42.04713 | -87.82905 | 8354 ft | 295 kts | 101° |
| 2026-05-06 18:22 | 42.04342 | -87.80167 | 9366 ft | 300 kts | 101° |
| 2026-05-06 18:22 | 42.03974 | -87.77381 | 10259 ft | 308 kts | 101° |
| 2026-05-06 18:23 | 42.03593 | -87.74427 | 10626 ft | 332 kts | 101° |
| 2026-05-06 18:23 | 42.03187 | -87.71271 | 11094 ft | 350 kts | 101° |
| 2026-05-06 18:23 | 42.02757 | -87.67992 | 11740 ft | 362 kts | 102° |
| 2026-05-06 18:23 | 42.02317 | -87.64618 | 12482 ft | 370 kts | 102° |
| 2026-05-06 18:24 | 42.01866 | -87.61169 | 13225 ft | 378 kts | 103° |
| 2026-05-06 18:24 | 42.01399 | -87.57651 | 13973 ft | 386 kts | 103° |
| 2026-05-06 18:24 | 42.00926 | -87.54061 | 14675 ft | 393 kts | 103° |
| 2026-05-06 18:24 | 42.00451 | -87.50413 | 15404 ft | 399 kts | 103° |
| 2026-05-06 18:25 | 41.99960 | -87.46710 | 16117 ft | 406 kts | 103° |
| 2026-05-06 18:25 | 41.99471 | -87.42945 | 16817 ft | 412 kts | 103° |
| 2026-05-06 18:25 | 41.98969 | -87.39126 | 17520 ft | 418 kts | 103° |
| 2026-05-06 18:25 | 41.98454 | -87.35255 | 18225 ft | 423 kts | 103° |
| 2026-05-06 18:26 | 41.97929 | -87.31335 | 18839 ft | 429 kts | 104° |
| 2026-05-06 18:26 | 41.97395 | -87.27375 | 19522 ft | 433 kts | 104° |
| 2026-05-06 18:26 | 41.96849 | -87.23364 | 20220 ft | 438 kts | 104° |
| 2026-05-06 18:26 | 41.96304 | -87.19319 | 20907 ft | 443 kts | 104° |
| 2026-05-06 18:27 | 41.95762 | -87.15277 | 21570 ft | 447 kts | 105° |
| 2026-05-06 18:27 | 41.95206 | -87.11146 | 22221 ft | 452 kts | 104° |
| 2026-05-06 18:27 | 41.94765 | -87.06931 | 22886 ft | 458 kts | 99° |
| 2026-05-06 18:27 | 41.94623 | -87.02623 | 23581 ft | 465 kts | 94° |
| 2026-05-06 18:28 | 41.94667 | -86.98247 | 24127 ft | 472 kts | 92° |
| 2026-05-06 18:28 | 41.94747 | -86.93816 | 24644 ft | 478 kts | 92° |
| 2026-05-06 18:28 | 41.94820 | -86.89329 | 25161 ft | 483 kts | 92° |
| 2026-05-06 18:28 | 41.94888 | -86.84788 | 25665 ft | 489 kts | 92° |
| 2026-05-06 18:29 | 41.94953 | -86.80199 | 26151 ft | 495 kts | 92° |
| 2026-05-06 18:29 | 41.95019 | -86.75552 | 26628 ft | 500 kts | 92° |
| 2026-05-06 18:29 | 41.95083 | -86.70860 | 27121 ft | 506 kts | 92° |
| 2026-05-06 18:29 | 41.95141 | -86.66116 | 27597 ft | 511 kts | 92° |
| 2026-05-06 18:30 | 41.95199 | -86.61316 | 28073 ft | 516 kts | 92° |
| 2026-05-06 18:30 | 41.95258 | -86.56469 | 28518 ft | 522 kts | 92° |
| 2026-05-06 18:30 | 41.95316 | -86.51570 | 28966 ft | 528 kts | 92° |
| 2026-05-06 18:30 | 41.95386 | -86.46604 | 29396 ft | 534 kts | 92° |
| 2026-05-06 18:31 | 41.95448 | -86.41596 | 29847 ft | 539 kts | 92° |
| 2026-05-06 18:31 | 41.95494 | -86.36537 | 30242 ft | 544 kts | 92° |
| 2026-05-06 18:31 | 41.95544 | -86.31422 | 30593 ft | 550 kts | 92° |
| 2026-05-06 18:31 | 41.95594 | -86.26266 | 30944 ft | 554 kts | 92° |
| 2026-05-06 18:32 | 41.95557 | -86.21078 | 31272 ft | 557 kts | 97° |
| 2026-05-06 18:32 | 41.95172 | -86.15895 | 31590 ft | 559 kts | 102° |
| 2026-05-06 18:32 | 41.94655 | -86.10711 | 31925 ft | 563 kts | 102° |
| 2026-05-06 18:32 | 41.94150 | -86.05478 | 32303 ft | 566 kts | 102° |
| 2026-05-06 18:33 | 41.93674 | -86.00227 | 32747 ft | 567 kts | 102° |
| 2026-05-06 18:33 | 41.93179 | -85.94965 | 33182 ft | 569 kts | 102° |
| 2026-05-06 18:33 | 41.92672 | -85.89689 | 33615 ft | 571 kts | 102° |
| 2026-05-06 18:33 | 41.92170 | -85.84397 | 34039 ft | 573 kts | 102° |
| 2026-05-06 18:34 | 41.91669 | -85.79083 | 34446 ft | 573 kts | 102° |
| 2026-05-06 18:34 | 41.91159 | -85.73785 | 34943 ft | 571 kts | 102° |
| 2026-05-06 18:34 | 41.90651 | -85.68512 | 35466 ft | 568 kts | 102° |
| 2026-05-06 18:34 | 41.90144 | -85.63255 | 35879 ft | 568 kts | 102° |
| 2026-05-06 18:35 | 41.89636 | -85.57994 | 36311 ft | 568 kts | 102° |
| 2026-05-06 18:35 | 41.89126 | -85.52750 | 36802 ft | 565 kts | 102° |
| 2026-05-06 18:35 | 41.88611 | -85.47533 | 37001 ft | 562 kts | 102° |
| 2026-05-06 18:35 | 41.88099 | -85.42355 | 36980 ft | 558 kts | 102° |
| 2026-05-06 18:36 | 41.87078 | -85.32037 | 37007 ft | 558 kts | 102° |
| 2026-05-06 18:36 | 41.86036 | -85.21736 | 37003 ft | 557 kts | 102° |
| 2026-05-06 18:37 | 41.84999 | -85.11431 | 37002 ft | 558 kts | 102° |
| 2026-05-06 18:37 | 41.83941 | -85.01130 | 36977 ft | 557 kts | 102° |
| 2026-05-06 18:38 | 41.82885 | -84.90890 | 36995 ft | 558 kts | 102° |
| 2026-05-06 18:38 | 41.81814 | -84.80580 | 37000 ft | 559 kts | 102° |
| 2026-05-06 18:39 | 41.80733 | -84.70270 | 37007 ft | 559 kts | 103° |
| 2026-05-06 18:40 | 41.79088 | -84.54800 | 36998 ft | 559 kts | 103° |
| 2026-05-06 18:40 | 41.78006 | -84.44496 | 37008 ft | 560 kts | 101° |
| 2026-05-06 18:41 | 41.77708 | -84.34026 | 37022 ft | 564 kts | 92° |
| 2026-05-06 18:41 | 41.77702 | -84.23525 | 36985 ft | 564 kts | 93° |
| 2026-05-06 18:42 | 41.77631 | -84.13016 | 36996 ft | 565 kts | 93° |
| 2026-05-06 18:42 | 41.77566 | -84.02490 | 37004 ft | 565 kts | 93° |
| 2026-05-06 18:43 | 41.77494 | -83.91959 | 37011 ft | 565 kts | 94° |
| 2026-05-06 18:43 | 41.77410 | -83.81429 | 36987 ft | 566 kts | 93° |
| 2026-05-06 18:44 | 41.77315 | -83.70895 | 36997 ft | 566 kts | 94° |
| 2026-05-06 18:44 | 41.77197 | -83.60348 | 37002 ft | 566 kts | 94° |
| 2026-05-06 18:45 | 41.76681 | -83.49866 | 36974 ft | 562 kts | 102° |
| 2026-05-06 18:45 | 41.75623 | -83.39486 | 36984 ft | 563 kts | 102° |
| 2026-05-06 18:46 | 41.74618 | -83.29090 | 36996 ft | 563 kts | 102° |
| 2026-05-06 18:46 | 41.73599 | -83.18684 | 37005 ft | 564 kts | 102° |
| 2026-05-06 18:47 | 41.72518 | -83.08302 | 36976 ft | 561 kts | 107° |
| 2026-05-06 18:47 | 41.71443 | -83.03419 | 36980 ft | 549 kts | 120° |
| 2026-05-06 18:47 | 41.69965 | -82.98664 | 36979 ft | 546 kts | 122° |
| 2026-05-06 18:48 | 41.67009 | -82.89271 | 36978 ft | 549 kts | 121° |
| 2026-05-06 18:48 | 41.64084 | -82.79831 | 36980 ft | 551 kts | 121° |
| 2026-05-06 18:49 | 41.61149 | -82.70430 | 36968 ft | 552 kts | 121° |
| 2026-05-06 18:49 | 41.58199 | -82.60946 | 36988 ft | 554 kts | 121° |
| 2026-05-06 18:50 | 41.55208 | -82.51423 | 36998 ft | 557 kts | 121° |
| 2026-05-06 18:50 | 41.52228 | -82.41861 | 36927 ft | 559 kts | 121° |
| 2026-05-06 18:51 | 41.49195 | -82.32314 | 36993 ft | 561 kts | 121° |
| 2026-05-06 18:51 | 41.46157 | -82.22707 | 36998 ft | 563 kts | 121° |
| 2026-05-06 18:52 | 41.43123 | -82.13109 | 36998 ft | 561 kts | 121° |
| 2026-05-06 18:52 | 41.40066 | -82.03571 | 36998 ft | 559 kts | 121° |
| 2026-05-06 18:53 | 41.37026 | -81.94047 | 36981 ft | 558 kts | 121° |
| 2026-05-06 18:53 | 41.33970 | -81.84551 | 36980 ft | 557 kts | 121° |
| 2026-05-06 18:54 | 41.30911 | -81.75053 | 36988 ft | 562 kts | 121° |
| 2026-05-06 18:54 | 41.27809 | -81.65464 | 36961 ft | 566 kts | 121° |
| 2026-05-06 18:55 | 41.24685 | -81.55852 | 36912 ft | 567 kts | 121° |
| 2026-05-06 18:55 | 41.21571 | -81.46227 | 36956 ft | 568 kts | 121° |
| 2026-05-06 18:56 | 41.18405 | -81.36632 | 36969 ft | 570 kts | 121° |
| 2026-05-06 18:56 | 41.15257 | -81.26956 | 36950 ft | 571 kts | 121° |
| 2026-05-06 18:57 | 41.12076 | -81.17311 | 36967 ft | 571 kts | 121° |
| 2026-05-06 18:57 | 41.08888 | -81.07647 | 36964 ft | 573 kts | 121° |
| 2026-05-06 18:58 | 41.05697 | -80.98011 | 36961 ft | 569 kts | 121° |
| 2026-05-06 18:58 | 41.02515 | -80.88437 | 36942 ft | 567 kts | 121° |
| 2026-05-06 18:59 | 40.99334 | -80.78905 | 36958 ft | 565 kts | 121° |
| 2026-05-06 18:59 | 40.96156 | -80.69413 | 36954 ft | 562 kts | 122° |
| 2026-05-06 19:00 | 40.92991 | -80.59995 | 36952 ft | 561 kts | 122° |
| 2026-05-06 19:00 | 40.89816 | -80.50577 | 36946 ft | 560 kts | 122° |
| 2026-05-06 19:01 | 40.86660 | -80.41251 | 36963 ft | 559 kts | 122° |
| 2026-05-06 19:01 | 40.83475 | -80.31884 | 36969 ft | 558 kts | 122° |
| 2026-05-06 19:02 | 40.80299 | -80.22537 | 36962 ft | 557 kts | 122° |
| 2026-05-06 19:02 | 40.77115 | -80.13224 | 36903 ft | 557 kts | 122° |
| 2026-05-06 19:03 | 40.73927 | -80.03917 | 36923 ft | 556 kts | 122° |
| 2026-05-06 19:03 | 40.70740 | -79.94640 | 36934 ft | 556 kts | 122° |
| 2026-05-06 19:04 | 40.67546 | -79.85361 | 36903 ft | 555 kts | 122° |
| 2026-05-06 19:04 | 40.64342 | -79.76139 | 36900 ft | 555 kts | 122° |
| 2026-05-06 19:05 | 40.61189 | -79.67002 | 36669 ft | 539 kts | 122° |
| 2026-05-06 19:05 | 40.58628 | -79.59667 | 36444 ft | 524 kts | 123° |
| 2026-05-06 19:05 | 40.57095 | -79.55313 | 36193 ft | 528 kts | 123° |
| 2026-05-06 19:06 | 40.55532 | -79.50868 | 35469 ft | 544 kts | 122° |
| 2026-05-06 19:06 | 40.53944 | -79.46310 | 34994 ft | 551 kts | 122° |
| 2026-05-06 19:06 | 40.52338 | -79.41727 | 34575 ft | 553 kts | 122° |
| 2026-05-06 19:06 | 40.50721 | -79.37145 | 34278 ft | 553 kts | 122° |
| 2026-05-06 19:07 | 40.49113 | -79.32563 | 33957 ft | 553 kts | 122° |
| 2026-05-06 19:07 | 40.47508 | -79.27978 | 33604 ft | 552 kts | 122° |
| 2026-05-06 19:07 | 40.45896 | -79.23399 | 33243 ft | 552 kts | 122° |
| 2026-05-06 19:07 | 40.44279 | -79.18836 | 32886 ft | 551 kts | 122° |
| 2026-05-06 19:08 | 40.42660 | -79.14281 | 32528 ft | 551 kts | 122° |
| 2026-05-06 19:08 | 40.41047 | -79.09725 | 32169 ft | 550 kts | 122° |
| 2026-05-06 19:08 | 40.39429 | -79.05178 | 31761 ft | 549 kts | 122° |
| 2026-05-06 19:08 | 40.37829 | -79.00656 | 31407 ft | 546 kts | 122° |
| 2026-05-06 19:09 | 40.36225 | -78.96154 | 31081 ft | 543 kts | 122° |
| 2026-05-06 19:09 | 40.34621 | -78.91676 | 30713 ft | 542 kts | 121° |
| 2026-05-06 19:09 | 40.33218 | -78.87072 | 30341 ft | 548 kts | 113° |
| 2026-05-06 19:09 | 40.32238 | -78.82231 | 29962 ft | 552 kts | 106° |
| 2026-05-06 19:10 | 40.31671 | -78.77240 | 29481 ft | 556 kts | 96° |
| 2026-05-06 19:10 | 40.31584 | -78.72173 | 28929 ft | 558 kts | 91° |
| 2026-05-06 19:10 | 40.31631 | -78.67089 | 28372 ft | 558 kts | 91° |
| 2026-05-06 19:10 | 40.31631 | -78.62000 | 27825 ft | 558 kts | 92° |
| 2026-05-06 19:11 | 40.31616 | -78.56920 | 27265 ft | 558 kts | 92° |
| 2026-05-06 19:11 | 40.31604 | -78.51828 | 26669 ft | 559 kts | 92° |
| 2026-05-06 19:11 | 40.31592 | -78.46736 | 26065 ft | 559 kts | 92° |
| 2026-05-06 19:11 | 40.31571 | -78.41637 | 25459 ft | 563 kts | 92° |
| 2026-05-06 19:12 | 40.31547 | -78.36477 | 24976 ft | 568 kts | 92° |
| 2026-05-06 19:12 | 40.31526 | -78.31310 | 24867 ft | 564 kts | 92° |
| 2026-05-06 19:12 | 40.31509 | -78.26201 | 24882 ft | 558 kts | 92° |
| 2026-05-06 19:12 | 40.31472 | -78.21143 | 24858 ft | 553 kts | 92° |
| 2026-05-06 19:13 | 40.31433 | -78.16129 | 24869 ft | 550 kts | 92° |
| 2026-05-06 19:13 | 40.31398 | -78.11110 | 24862 ft | 551 kts | 92° |
| 2026-05-06 19:13 | 40.31370 | -78.06080 | 24857 ft | 552 kts | 92° |
| 2026-05-06 19:13 | 40.31332 | -78.01050 | 24856 ft | 553 kts | 93° |
| 2026-05-06 19:14 | 40.31286 | -77.96010 | 24853 ft | 554 kts | 92° |
| 2026-05-06 19:14 | 40.31249 | -77.90961 | 24844 ft | 552 kts | 92° |
| 2026-05-06 19:14 | 40.31202 | -77.85953 | 24837 ft | 547 kts | 92° |
| 2026-05-06 19:14 | 40.31156 | -77.80999 | 24836 ft | 541 kts | 93° |
| 2026-05-06 19:15 | 40.31103 | -77.76097 | 24839 ft | 535 kts | 92° |
| 2026-05-06 19:15 | 40.31060 | -77.71250 | 24839 ft | 529 kts | 92° |
| 2026-05-06 19:15 | 40.31011 | -77.66448 | 24709 ft | 527 kts | 93° |
| 2026-05-06 19:15 | 40.30958 | -77.61709 | 24480 ft | 526 kts | 93° |
| 2026-05-06 19:16 | 40.30911 | -77.56896 | 24227 ft | 517 kts | 93° |
| 2026-05-06 19:16 | 40.30847 | -77.52221 | 23998 ft | 510 kts | 93° |
| 2026-05-06 19:16 | 40.30785 | -77.47656 | 23771 ft | 505 kts | 93° |
| 2026-05-06 19:16 | 40.30725 | -77.43051 | 23270 ft | 507 kts | 92° |
| 2026-05-06 19:17 | 40.30668 | -77.38441 | 22649 ft | 505 kts | 93° |
| 2026-05-06 19:17 | 40.30613 | -77.33859 | 22130 ft | 501 kts | 93° |
| 2026-05-06 19:17 | 40.30558 | -77.29312 | 21581 ft | 497 kts | 92° |
| 2026-05-06 19:17 | 40.30489 | -77.24752 | 21036 ft | 491 kts | 92° |
| 2026-05-06 19:18 | 40.30425 | -77.20309 | 20531 ft | 484 kts | 92° |
| 2026-05-06 19:18 | 40.30361 | -77.15936 | 20073 ft | 477 kts | 92° |
| 2026-05-06 19:18 | 40.30303 | -77.11650 | 19459 ft | 464 kts | 92° |
| 2026-05-06 19:18 | 40.30103 | -77.07531 | 18930 ft | 458 kts | 101° |
| 2026-05-06 19:19 | 40.29430 | -77.03538 | 18830 ft | 440 kts | 109° |
| 2026-05-06 19:19 | 40.28577 | -76.99765 | 18840 ft | 427 kts | 110° |
| 2026-05-06 19:19 | 40.27724 | -76.96087 | 18826 ft | 416 kts | 111° |
| 2026-05-06 19:19 | 40.26887 | -76.92510 | 18828 ft | 406 kts | 111° |
| 2026-05-06 19:20 | 40.26071 | -76.89008 | 18627 ft | 403 kts | 111° |
| 2026-05-06 19:20 | 40.25254 | -76.85505 | 18383 ft | 401 kts | 111° |
| 2026-05-06 19:20 | 40.24455 | -76.82031 | 18154 ft | 399 kts | 111° |
| 2026-05-06 19:20 | 40.23647 | -76.78558 | 17888 ft | 396 kts | 111° |
| 2026-05-06 19:21 | 40.22845 | -76.75114 | 17615 ft | 395 kts | 111° |
| 2026-05-06 19:21 | 40.22045 | -76.71677 | 17212 ft | 396 kts | 111° |
| 2026-05-06 19:21 | 40.21236 | -76.68222 | 16791 ft | 398 kts | 111° |
| 2026-05-06 19:21 | 40.20428 | -76.64753 | 16397 ft | 400 kts | 111° |
| 2026-05-06 19:22 | 40.19609 | -76.61273 | 15995 ft | 401 kts | 111° |
| 2026-05-06 19:22 | 40.18781 | -76.57790 | 15604 ft | 401 kts | 111° |
| 2026-05-06 19:22 | 40.17959 | -76.54302 | 15216 ft | 401 kts | 111° |
| 2026-05-06 19:22 | 40.17140 | -76.50835 | 14830 ft | 398 kts | 111° |
| 2026-05-06 19:23 | 40.16323 | -76.47380 | 14439 ft | 397 kts | 112° |
| 2026-05-06 19:23 | 40.15515 | -76.43955 | 14059 ft | 392 kts | 112° |
| 2026-05-06 19:23 | 40.14711 | -76.40577 | 13688 ft | 387 kts | 112° |
| 2026-05-06 19:23 | 40.13913 | -76.37238 | 13272 ft | 383 kts | 112° |
| 2026-05-06 19:24 | 40.13137 | -76.33948 | 12997 ft | 374 kts | 112° |
| 2026-05-06 19:24 | 40.12367 | -76.30691 | 12977 ft | 379 kts | 110° |
| 2026-05-06 19:24 | 40.11850 | -76.27256 | 12982 ft | 392 kts | 100° |
| 2026-05-06 19:24 | 40.11600 | -76.23665 | 12978 ft | 401 kts | 98° |
| 2026-05-06 19:25 | 40.11372 | -76.20055 | 12444 ft | 399 kts | 98° |
| 2026-05-06 19:25 | 40.11135 | -76.16451 | 11807 ft | 397 kts | 98° |
| 2026-05-06 19:25 | 40.10894 | -76.12900 | 11463 ft | 386 kts | 99° |
| 2026-05-06 19:25 | 40.10661 | -76.09511 | 11173 ft | 363 kts | 99° |
| 2026-05-06 19:26 | 40.10439 | -76.06315 | 10876 ft | 344 kts | 99° |
| 2026-05-06 19:26 | 40.10228 | -76.03281 | 10591 ft | 328 kts | 99° |
| 2026-05-06 19:26 | 40.10022 | -76.00368 | 10340 ft | 322 kts | 99° |
| 2026-05-06 19:26 | 40.09808 | -75.97353 | 10072 ft | 340 kts | 99° |
| 2026-05-06 19:27 | 40.09595 | -75.94219 | 9839 ft | 348 kts | 99° |
| 2026-05-06 19:27 | 40.09375 | -75.91113 | 9680 ft | 339 kts | 99° |
| 2026-05-06 19:27 | 40.09152 | -75.88072 | 9322 ft | 335 kts | 99° |
| 2026-05-06 19:27 | 40.08943 | -75.85089 | 8923 ft | 323 kts | 99° |
| 2026-05-06 19:28 | 40.08743 | -75.82223 | 8665 ft | 313 kts | 99° |
| 2026-05-06 19:28 | 40.08546 | -75.79409 | 8415 ft | 310 kts | 98° |
| 2026-05-06 19:28 | 40.08340 | -75.76571 | 8152 ft | 318 kts | 99° |
| 2026-05-06 19:28 | 40.08141 | -75.73672 | 8015 ft | 322 kts | 97° |
| 2026-05-06 19:29 | 40.08015 | -75.70801 | 7999 ft | 320 kts | 96° |
| 2026-05-06 19:29 | 40.07891 | -75.67869 | 7995 ft | 318 kts | 96° |
| 2026-05-06 19:29 | 40.07767 | -75.65007 | 8015 ft | 315 kts | 96° |
| 2026-05-06 19:29 | 40.07637 | -75.62207 | 8009 ft | 312 kts | 97° |
| 2026-05-06 19:30 | 40.07504 | -75.59385 | 8013 ft | 310 kts | 97° |
| 2026-05-06 19:30 | 40.07371 | -75.56584 | 8012 ft | 309 kts | 97° |
| 2026-05-06 19:30 | 40.07235 | -75.53788 | 8018 ft | 309 kts | 97° |
| 2026-05-06 19:30 | 40.07096 | -75.50979 | 8018 ft | 310 kts | 97° |
| 2026-05-06 19:31 | 40.06958 | -75.48160 | 7793 ft | 313 kts | 97° |
| 2026-05-06 19:31 | 40.06820 | -75.45300 | 7378 ft | 315 kts | 96° |
| 2026-05-06 19:31 | 40.06544 | -75.39627 | 6687 ft | 313 kts | 97° |
| 2026-05-06 19:32 | 40.06403 | -75.36800 | 6377 ft | 311 kts | 97° |
| 2026-05-06 19:32 | 40.06262 | -75.33983 | 6108 ft | 311 kts | 97° |
| 2026-05-06 19:32 | 40.06118 | -75.31173 | 5956 ft | 309 kts | 96° |
| 2026-05-06 19:32 | 40.05977 | -75.28384 | 5635 ft | 306 kts | 96° |
| 2026-05-06 19:33 | 40.05793 | -75.25635 | 5298 ft | 302 kts | 103° |
| 2026-05-06 19:33 | 40.05120 | -75.23086 | 5002 ft | 294 kts | 123° |
| 2026-05-06 19:33 | 40.03929 | -75.20988 | 4675 ft | 284 kts | 142° |
| 2026-05-06 19:33 | 40.02366 | -75.19496 | 4332 ft | 274 kts | 159° |
| 2026-05-06 19:34 | 40.00620 | -75.18645 | 4078 ft | 264 kts | 168° |
| 2026-05-06 19:34 | 39.99019 | -75.17401 | 4015 ft | 287 kts | 137° |
| 2026-05-06 19:34 | 39.98097 | -75.15100 | 3995 ft | 290 kts | 103° |
| 2026-05-06 19:34 | 39.98198 | -75.12551 | 3997 ft | 277 kts | 76° |
| 2026-05-06 19:35 | 39.98703 | -75.10202 | 3959 ft | 263 kts | 74° |
| 2026-05-06 19:35 | 39.99203 | -75.07950 | 3795 ft | 255 kts | 74° |
| 2026-05-06 19:35 | 39.99698 | -75.05746 | 3513 ft | 253 kts | 75° |
| 2026-05-06 19:35 | 40.00198 | -75.03541 | 3232 ft | 255 kts | 75° |
| 2026-05-06 19:36 | 40.00701 | -75.01318 | 3084 ft | 256 kts | 76° |
| 2026-05-06 19:36 | 40.01193 | -74.99088 | 2932 ft | 255 kts | 77° |
| 2026-05-06 19:36 | 40.01681 | -74.96873 | 2785 ft | 253 kts | 77° |
| 2026-05-06 19:36 | 40.02030 | -74.94655 | 2553 ft | 247 kts | 96° |
| 2026-05-06 19:37 | 40.01595 | -74.92578 | 2316 ft | 233 kts | 130° |
| 2026-05-06 19:37 | 40.00468 | -74.91247 | 2130 ft | 210 kts | 164° |
| 2026-05-06 19:37 | 39.99120 | -74.90865 | 2102 ft | 191 kts | 193° |
| 2026-05-06 19:37 | 39.98321 | -74.91222 | 2102 ft | 180 kts | 217° |
| 2026-05-06 19:38 | 39.97174 | -74.92724 | 2109 ft | 172 kts | 228° |
| 2026-05-06 19:38 | 39.96361 | -74.93895 | 2105 ft | 175 kts | 228° |
| 2026-05-06 19:38 | 39.95543 | -74.95076 | 2103 ft | 176 kts | 228° |
| 2026-05-06 19:38 | 39.94718 | -74.96255 | 2105 ft | 175 kts | 228° |
| 2026-05-06 19:39 | 39.93928 | -74.97399 | 2097 ft | 169 kts | 228° |
| 2026-05-06 19:39 | 39.93161 | -74.98522 | 2097 ft | 162 kts | 229° |
| 2026-05-06 19:39 | 39.92421 | -74.99603 | 2088 ft | 159 kts | 229° |
| 2026-05-06 19:39 | 39.91795 | -75.00781 | 2095 ft | 160 kts | 246° |
| 2026-05-06 19:40 | 39.91490 | -75.02175 | 2113 ft | 162 kts | 251° |
| 2026-05-06 19:40 | 39.91213 | -75.03631 | 2146 ft | 168 kts | 252° |
| 2026-05-06 19:40 | 39.90921 | -75.05146 | 2110 ft | 176 kts | 251° |
| 2026-05-06 19:40 | 39.90610 | -75.06718 | 2091 ft | 179 kts | 252° |
| 2026-05-06 19:41 | 39.90319 | -75.08202 | 2072 ft | 161 kts | 252° |
| 2026-05-06 19:41 | 39.90055 | -75.09559 | 1953 ft | 147 kts | 251° |
| 2026-05-06 19:41 | 39.89816 | -75.10778 | 1807 ft | 132 kts | 251° |
| 2026-05-06 19:41 | 39.89599 | -75.11874 | 1647 ft | 121 kts | 251° |
| 2026-05-06 19:42 | 39.89388 | -75.12924 | 1485 ft | 118 kts | 251° |
| 2026-05-06 19:42 | 39.89183 | -75.13952 | 1335 ft | 116 kts | 251° |
| 2026-05-06 19:42 | 39.88978 | -75.14978 | 1183 ft | 120 kts | 251° |
| 2026-05-06 19:42 | 39.88764 | -75.16050 | 1023 ft | 123 kts | 251° |
| 2026-05-06 19:43 | 39.88546 | -75.17143 | 847 ft | 125 kts | 252° |
| 2026-05-06 19:43 | 39.88323 | -75.18264 | 683 ft | 131 kts | 251° |
| 2026-05-06 19:43 | 39.88095 | -75.19409 | 506 ft | 130 kts | 254° |
| 2026-05-06 19:43 | 39.87876 | -75.20521 | 320 ft | 126 kts | 250° |
| 2026-05-06 19:44 | 39.87660 | -75.21616 | 172 ft | 124 kts | 250° |
| 2026-05-06 19:44 | 39.87443 | -75.22680 | 28 ft | 113 kts | 255° |
| 2026-05-06 19:44 | 39.87288 | -75.23459 | 30 ft | 64 kts | 256° |
| 2026-05-06 19:44 | 39.87230 | -75.23766 | 28 ft | 14 kts | 259° |
| 2026-05-06 19:45 | 39.87260 | -75.23811 | 25 ft | 5 kts | 342° |
| 2026-05-06 19:45 | 39.87301 | -75.23828 | 29 ft | 7 kts | 340° |
| 2026-05-06 19:45 | 39.87311 | -75.23834 | 28 ft | 1 kts | 334° |
| 2026-05-06 19:45 | 39.87331 | -75.23852 | 26 ft | 6 kts | 325° |
| 2026-05-06 19:46 | 39.87377 | -75.23903 | 25 ft | 11 kts | 302° |
| 2026-05-06 19:46 | 39.87364 | -75.24009 | 25 ft | 11 kts | 256° |
| 2026-05-06 19:46 | 39.87341 | -75.24125 | 27 ft | 11 kts | 256° |
| 2026-05-06 19:46 | 39.87357 | -75.24222 | 28 ft | 12 kts | 321° |
| 2026-05-06 19:47 | 39.87407 | -75.24235 | 29 ft | 1 kts | 350° |
| 2026-05-06 19:47 | 39.87432 | -75.24240 | 28 ft | 6 kts | 354° |
| 2026-05-06 19:47 | 39.87491 | -75.24256 | 30 ft | 9 kts | 345° |
| 2026-05-06 19:47 | 39.87513 | -75.24298 | 27 ft | 4 kts | 270° |
| 2026-05-06 19:48 | 39.87512 | -75.24326 | 25 ft | 1 kts | 269° |